createdAt,value
2023-05-06T05:00:31.161Z,15.80
2023-05-06T05:05:35.674Z,16.20
2023-05-06T05:10:43.730Z,15.90
2023-05-06T05:15:49.378Z,15.60
2023-05-06T05:25:57.338Z,15.70
2023-05-06T05:31:05.107Z,15.90
2023-05-06T05:36:09.793Z,16.10
2023-05-06T05:41:14.949Z,16.30
2023-05-06T05:46:22.586Z,16.40
2023-05-06T05:51:26.468Z,16.40
2023-05-06T06:01:36.425Z,16.20
2023-05-06T06:11:45.224Z,16.10
2023-05-06T06:16:50.625Z,16.30
2023-05-06T06:26:59.030Z,16.40
2023-05-06T06:32:05.590Z,16.40
2023-05-06T06:37:11.832Z,16.40
2023-05-06T06:47:23.916Z,16.50
2023-05-06T07:02:36.774Z,16.50
2023-05-06T07:07:40.469Z,17.00
2023-05-06T07:12:44.051Z,16.50
2023-05-06T07:17:49.116Z,16.70
2023-05-06T07:22:52.751Z,16.70
2023-05-06T07:27:56.427Z,17.20
2023-05-06T07:33:01.604Z,17.10
2023-05-06T07:43:09.823Z,17.20
2023-05-06T07:48:15.802Z,17.10
2023-05-06T08:03:29.308Z,17.10
2023-05-06T08:18:42.101Z,17.00
2023-05-06T08:33:55.300Z,17.00
2023-05-06T08:44:04.532Z,16.90
2023-05-06T08:49:09.713Z,17.00
2023-05-06T08:54:14.312Z,17.00
2023-05-06T09:04:23.389Z,17.10
2023-05-06T09:19:39.637Z,17.10
2023-05-06T09:24:43.795Z,17.10
2023-05-06T09:30:01.633Z,17.20
2023-05-06T09:35:07.788Z,17.20
2023-05-06T09:40:12.029Z,17.40
2023-05-06T09:45:17.849Z,17.40
2023-05-06T09:50:23.868Z,17.40
2023-05-06T09:55:29.011Z,17.70
2023-05-06T10:00:33.085Z,17.80
2023-05-06T10:05:38.719Z,18.20
2023-05-06T10:10:43.730Z,18.50
2023-05-06T10:15:48.833Z,18.50
2023-05-06T10:20:55.419Z,18.80
2023-05-06T10:31:05.175Z,19.80
2023-05-06T10:36:20.180Z,20.10
2023-05-06T10:41:26.134Z,20.00
2023-05-06T10:46:30.966Z,20.20
2023-05-06T10:51:36.489Z,20.10
2023-05-06T10:56:41.658Z,20.20
2023-05-06T11:01:46.300Z,20.30
2023-05-06T11:06:51.841Z,20.30
2023-05-06T11:12:01.925Z,20.90
2023-05-06T11:17:07.798Z,20.90
2023-05-06T11:22:41.546Z,21.60
2023-05-06T11:27:45.142Z,22.40
2023-05-06T11:37:54.373Z,23.50
2023-05-06T11:53:07.328Z,23.00
2023-05-06T11:58:14.411Z,22.70
2023-05-06T12:08:27.864Z,22.20
2023-05-06T12:13:32.319Z,22.20
2023-05-06T12:18:36.268Z,22.00
2023-05-06T12:23:51.963Z,21.50
2023-05-06T12:29:07.306Z,21.50
2023-05-06T12:39:17.638Z,21.60
2023-05-06T12:44:38.224Z,22.10
2023-05-06T12:49:49.748Z,22.00
2023-05-06T12:54:54.924Z,22.00
2023-05-06T12:59:58.504Z,21.90
2023-05-06T13:10:09.146Z,21.80
2023-05-06T13:15:13.560Z,21.70
2023-05-06T13:20:18.488Z,21.80
2023-05-06T13:25:23.543Z,21.80
2023-05-06T13:40:36.453Z,22.00
2023-05-06T13:45:40.036Z,22.00
2023-05-06T13:55:48.927Z,21.80
2023-05-06T14:00:52.467Z,21.80
2023-05-06T14:11:01.460Z,20.50
2023-05-06T14:16:05.315Z,21.50
2023-05-06T14:26:14.213Z,19.90
2023-05-06T14:41:27.247Z,20.90
2023-05-06T14:56:41.440Z,21.60
2023-05-06T15:11:54.234Z,22.10
2023-05-06T15:16:58.544Z,22.20
2023-05-06T15:22:01.988Z,22.10
2023-05-06T15:27:07.347Z,22.10
2023-05-06T15:32:11.009Z,22.10
2023-05-06T15:42:21.538Z,22.30
2023-05-06T15:52:29.234Z,22.10
2023-05-06T15:57:34.171Z,22.10
2023-05-06T16:02:37.801Z,22.00
2023-05-06T16:12:47.160Z,21.90
2023-05-06T16:28:00.125Z,21.50
2023-05-06T16:43:14.154Z,21.30
2023-05-06T16:49:03.713Z,21.30
2023-05-06T16:54:07.513Z,21.30
2023-05-06T16:59:12.476Z,21.10
2023-05-06T17:14:26.528Z,20.90
2023-05-06T17:19:30.226Z,20.90
2023-05-06T17:29:39.986Z,20.80
2023-05-06T17:34:43.543Z,20.70
2023-05-06T17:44:52.220Z,20.50
2023-05-06T17:49:55.787Z,20.40
2023-05-06T17:55:14.943Z,20.20
2023-05-06T18:00:21.625Z,20.00
2023-05-06T18:05:26.423Z,19.90
2023-05-06T18:10:31.085Z,19.90
2023-05-06T18:15:36.031Z,19.80
2023-05-06T18:20:39.919Z,19.70
2023-05-06T18:25:43.489Z,19.70
2023-05-06T18:30:48.354Z,19.70
2023-05-06T18:35:51.889Z,19.70
2023-05-06T18:40:55.342Z,19.70
2023-05-06T18:46:00.322Z,19.70
2023-05-06T18:51:13.776Z,19.70
2023-05-06T18:56:17.311Z,19.70
2023-05-06T19:01:22.920Z,19.70
2023-05-06T19:06:26.547Z,19.60
2023-05-06T19:11:30.072Z,19.50
2023-05-06T19:16:35.071Z,19.60
2023-05-06T19:21:38.884Z,19.40
2023-05-06T19:26:42.371Z,19.40
2023-05-06T19:31:47.256Z,19.30
2023-05-06T19:36:50.810Z,19.30
2023-05-06T19:41:55.664Z,19.20
2023-05-06T19:47:00.518Z,19.10
2023-05-06T19:52:04.060Z,19.00
2023-05-06T20:02:16.607Z,18.90
2023-05-06T20:07:21.146Z,18.80
2023-05-06T20:12:27.405Z,18.70
2023-05-06T20:17:32.501Z,18.60
2023-05-06T20:22:36.683Z,18.60
2023-05-06T20:27:40.276Z,18.50
2023-05-06T20:32:45.210Z,18.40
2023-05-06T20:37:48.799Z,18.30
2023-05-06T20:42:52.316Z,18.20
2023-05-06T20:47:57.282Z,18.00
2023-05-06T20:53:02.350Z,17.90
2023-05-06T20:58:05.961Z,17.80
2023-05-06T21:03:11.008Z,17.70
2023-05-06T21:08:14.949Z,17.70
2023-05-06T21:13:18.460Z,17.60
2023-05-06T21:18:23.606Z,17.40
2023-05-06T21:23:27.398Z,17.40
2023-05-06T21:28:30.921Z,17.60
2023-05-06T21:33:35.786Z,17.30
2023-05-06T21:38:39.915Z,17.40
2023-05-06T21:43:43.487Z,17.30
2023-05-06T21:48:48.364Z,17.30
2023-05-06T21:53:51.896Z,17.40
2023-05-06T21:58:56.572Z,17.40
2023-05-06T22:04:01.523Z,17.40
2023-05-06T22:09:09.244Z,17.50
2023-05-06T22:14:14.973Z,17.60
2023-05-06T22:19:20.157Z,17.60
2023-05-06T22:24:23.712Z,17.50
2023-05-06T22:29:27.300Z,17.40
